Grove City, Minnesota
Current Conditions -  °F | °C
As of 11:52 PM on Thursday 27 Nov 2014 (Local Time) from KLJF Reporting Station
Light Snow Light Snow  
Wind Chill: -10°   Ceiling: 500
Heat Index:   Visibility: 1.7mi
Dew Point:   Wind: 14mph
Humidity: 85%   Direction: 110°ESE
Pressure: 30.18"   Gusts: NA
Location:  45.15°N, 94.68°W
Report Text: KLJF 280552Z AUTO 11012KT 1 3/4SM -SN OVC005 M14/M16 A3018 RMK AO2
Loading
Personal Weather Stations






























Interactive Weather Map New forecast layout! Learn more

10-Day Weather Forecast

Advertisements
Track Severe Weather on mobile